Time;durP1;ratioP1;P1;durP2;ratioP2;P2;SDS_P1;SDS_P2;PMS_P1;PMS_P2;Temp;Humidity;BMP_temperature;BMP_pressure;BME280_temperature;BME280_humidity;BME280_pressure;Samples;Min_cycle;Max_cycle;Signal;HPM_P1;HPM_P2
2021/12/27 00:00:53;;;;;;;11.45;8.15;;;;;;;;;;5034096;28;20060;-82
2021/12/27 00:03:20;;;;;;;13.23;10.43;;;;;;;;;;5031958;28;20036;-80
2021/12/27 00:05:46;;;;;;;12.43;10.32;;;;;;;;;;5033995;28;20247;-82
2021/12/27 00:08:12;;;;;;;13.05;9.65;;;;;;;;;;5034004;28;20049;-83
2021/12/27 00:10:39;;;;;;;12.87;10.80;;;;;;;;;;5016644;28;20064;-81
2021/12/27 00:13:07;;;;;;;15.80;11.43;;;;;;;;;;5036623;28;20045;-80
2021/12/27 00:15:33;;;;;;;14.77;11.48;;;;;;;;;;5020957;28;20048;-81
2021/12/27 00:18:00;;;;;;;19.58;13.40;;;;;;;;;;5027480;28;20509;-81
2021/12/27 00:20:27;;;;;;;15.60;11.38;;;;;;;;;;5028690;28;20301;-82
2021/12/27 00:22:54;;;;;;;17.67;12.77;;;;;;;;;;5009942;28;20494;-81
2021/12/27 00:25:21;;;;;;;15.40;11.73;;;;;;;;;;5033769;28;20033;-81
2021/12/27 00:27:47;;;;;;;17.95;13.05;;;;;;;;;;5033913;28;20100;-81
2021/12/27 00:30:15;;;;;;;16.98;13.00;;;;;;;;;;5033774;28;20033;-81
2021/12/27 00:32:43;;;;;;;16.50;12.70;;;;;;;;;;5011604;28;20033;-82
2021/12/27 00:35:10;;;;;;;12.82;10.38;;;;;;;;;;5013640;28;20117;-81
2021/12/27 00:37:36;;;;;;;16.10;11.05;;;;;;;;;;5015207;28;20026;-81
2021/12/27 00:40:04;;;;;;;13.65;9.48;;;;;;;;;;5033112;28;20056;-82
2021/12/27 00:42:32;;;;;;;11.30;8.52;;;;;;;;;;5033472;28;20025;-80
2021/12/27 00:44:58;;;;;;;11.80;7.75;;;;;;;;;;5013821;28;20212;-82
2021/12/27 00:47:24;;;;;;;10.45;7.90;;;;;;;;;;5033768;28;20036;-81
2021/12/27 00:49:51;;;;;;;10.82;8.05;;;;;;;;;;5033893;28;20353;-82
2021/12/27 00:52:18;;;;;;;11.35;8.32;;;;;;;;;;5031776;28;20079;-82
2021/12/27 00:54:44;;;;;;;11.68;8.25;;;;;;;;;;5035554;28;20117;-81
2021/12/27 00:57:10;;;;;;;11.57;8.85;;;;;;;;;;5034554;28;20088;-82
2021/12/27 00:59:37;;;;;;;10.70;8.00;;;;;;;;;;5028375;28;20032;-82
2021/12/27 01:02:03;;;;;;;12.55;8.73;;;;;;;;;;5032830;28;20033;-81
2021/12/27 01:04:29;;;;;;;12.23;9.63;;;;;;;;;;5033465;28;20391;-81
2021/12/27 01:06:56;;;;;;;12.85;9.73;;;;;;;;;;5032880;28;20033;-82
2021/12/27 01:15:06;;;;;;;11.38;7.82;;;;;;;;;;5032914;28;20076;-81
2021/12/27 01:17:32;;;;;;;10.32;8.32;;;;;;;;;;5032447;28;20045;-83
2021/12/27 01:19:58;;;;;;;12.52;8.40;;;;;;;;;;5031669;28;20060;-82
2021/12/27 01:22:24;;;;;;;13.35;9.23;;;;;;;;;;5032940;28;20079;-83
2021/12/27 01:24:50;;;;;;;13.13;9.65;;;;;;;;;;5016708;28;20061;-83
2021/12/27 01:27:17;;;;;;;11.10;8.70;;;;;;;;;;5032207;28;20022;-81
2021/12/27 01:29:43;;;;;;;11.75;8.57;;;;;;;;;;5030305;28;20038;-82
2021/12/27 01:32:09;;;;;;;10.32;7.90;;;;;;;;;;5032484;28;20032;-82
2021/12/27 01:34:36;;;;;;;9.77;6.97;;;;;;;;;;5013774;28;20106;-84
2021/12/27 01:37:02;;;;;;;11.73;8.80;;;;;;;;;;5033519;28;20436;-84
2021/12/27 01:39:28;;;;;;;13.32;9.95;;;;;;;;;;5035497;28;20456;-83
2021/12/27 01:41:55;;;;;;;16.30;13.05;;;;;;;;;;5028511;28;20030;-84
2021/12/27 01:44:21;;;;;;;22.50;15.10;;;;;;;;;;5030928;28;20026;-82
2021/12/27 01:46:47;;;;;;;24.55;15.82;;;;;;;;;;5009955;28;20037;-83
2021/12/27 01:49:14;;;;;;;18.63;14.13;;;;;;;;;;5026240;28;20026;-83
2021/12/27 01:51:41;;;;;;;20.48;14.05;;;;;;;;;;5032429;28;20052;-82
2021/12/27 01:54:07;;;;;;;18.92;13.73;;;;;;;;;;5032696;28;20026;-83
2021/12/27 01:56:33;;;;;;;18.90;13.23;;;;;;;;;;5035034;28;20061;-82
2021/12/27 01:59:00;;;;;;;16.27;11.70;;;;;;;;;;5033086;28;20037;-83
2021/12/27 02:01:27;;;;;;;20.67;13.45;;;;;;;;;;5010964;28;20026;-81
2021/12/27 02:03:54;;;;;;;15.47;11.83;;;;;;;;;;5034754;28;20071;-82
2021/12/27 02:06:20;;;;;;;15.55;11.88;;;;;;;;;;5033162;28;20030;-81
2021/12/27 02:08:47;;;;;;;21.75;15.38;;;;;;;;;;5038338;28;20036;-82
2021/12/27 02:11:14;;;;;;;19.52;14.45;;;;;;;;;;5035705;28;20060;-82
2021/12/27 02:13:45;;;;;;;25.45;16.92;;;;;;;;;;5011586;28;20025;-82
2021/12/27 02:16:19;;;;;;;21.97;16.37;;;;;;;;;;5031838;28;20071;-82
2021/12/27 02:18:46;;;;;;;25.58;16.13;;;;;;;;;;5025913;28;20456;-82
2021/12/27 02:21:14;;;;;;;24.27;17.03;;;;;;;;;;5023544;28;20033;-83
2021/12/27 02:23:41;;;;;;;24.87;16.23;;;;;;;;;;5012457;28;20389;-80
2021/12/27 02:26:08;;;;;;;21.50;13.90;;;;;;;;;;5031844;28;20025;-83
2021/12/27 02:28:36;;;;;;;19.00;12.88;;;;;;;;;;5031616;28;20350;-81
2021/12/27 02:31:03;;;;;;;17.52;10.95;;;;;;;;;;5032481;28;20022;-82
2021/12/27 02:33:30;;;;;;;17.07;10.83;;;;;;;;;;5033140;28;20025;-81
2021/12/27 02:35:57;;;;;;;18.03;12.40;;;;;;;;;;5004747;28;20034;-84
2021/12/27 02:38:27;;;;;;;22.65;15.43;;;;;;;;;;5014445;28;20036;-83
2021/12/27 02:40:55;;;;;;;18.23;12.60;;;;;;;;;;5030543;28;21322;-82
2021/12/27 02:43:22;;;;;;;12.43;9.00;;;;;;;;;;5026893;28;20492;-81
2021/12/27 02:45:50;;;;;;;13.38;9.02;;;;;;;;;;5006708;28;20029;-82
2021/12/27 02:48:18;;;;;;;14.17;9.27;;;;;;;;;;5028415;28;20123;-83
2021/12/27 02:50:45;;;;;;;15.10;10.05;;;;;;;;;;5029236;28;20125;-82
2021/12/27 02:53:12;;;;;;;13.93;9.10;;;;;;;;;;5028012;28;20037;-83
2021/12/27 02:55:39;;;;;;;17.23;12.23;;;;;;;;;;5021300;28;20191;-82
2021/12/27 02:58:06;;;;;;;16.60;12.55;;;;;;;;;;5005497;28;20144;-84
2021/12/27 03:00:34;;;;;;;17.85;12.88;;;;;;;;;;5030396;28;20029;-82
2021/12/27 03:03:00;;;;;;;16.20;10.48;;;;;;;;;;5031213;28;20184;-81
2021/12/27 03:05:28;;;;;;;14.85;11.10;;;;;;;;;;5038426;28;20072;-81
2021/12/27 03:07:54;;;;;;;18.63;13.43;;;;;;;;;;5024535;28;20061;-82
2021/12/27 03:10:23;;;;;;;16.15;13.43;;;;;;;;;;5022123;28;20025;-83
2021/12/27 03:12:50;;;;;;;19.23;14.70;;;;;;;;;;5025301;28;20087;-81
2021/12/27 03:15:18;;;;;;;25.53;18.27;;;;;;;;;;5030933;28;20031;-82
2021/12/27 03:17:45;;;;;;;29.45;20.73;;;;;;;;;;5025261;28;20103;-83
2021/12/27 03:20:12;;;;;;;28.50;19.38;;;;;;;;;;5020315;28;20037;-83
2021/12/27 03:22:40;;;;;;;22.52;15.57;;;;;;;;;;5026560;28;20128;-81
2021/12/27 03:25:07;;;;;;;19.67;15.07;;;;;;;;;;5009675;28;20040;-82
2021/12/27 03:27:33;;;;;;;24.03;15.37;;;;;;;;;;5028417;28;20492;-84
2021/12/27 03:30:00;;;;;;;23.10;15.97;;;;;;;;;;5005616;28;20029;-83
2021/12/27 03:32:26;;;;;;;20.70;14.60;;;;;;;;;;5020838;28;20391;-83
2021/12/27 03:35:03;;;;;;;17.63;13.47;;;;;;;;;;5003274;28;20453;-83
2021/12/27 03:37:30;;;;;;;21.95;14.88;;;;;;;;;;5000725;28;20025;-82
2021/12/27 03:39:57;;;;;;;19.15;14.27;;;;;;;;;;5017421;28;20467;-82
2021/12/27 03:42:23;;;;;;;18.60;14.63;;;;;;;;;;4999770;28;20033;-82
2021/12/27 03:44:49;;;;;;;23.35;16.33;;;;;;;;;;5019787;28;21076;-83
2021/12/27 03:47:17;;;;;;;25.33;18.85;;;;;;;;;;5024958;28;20108;-83
2021/12/27 03:49:43;;;;;;;27.52;19.17;;;;;;;;;;5025185;28;20596;-85
2021/12/27 03:52:10;;;;;;;24.30;18.00;;;;;;;;;;5021073;28;20033;-82
2021/12/27 03:54:36;;;;;;;27.38;19.25;;;;;;;;;;5003794;28;20045;-83
2021/12/27 03:57:02;;;;;;;35.22;24.95;;;;;;;;;;5024664;28;21238;-84
2021/12/27 04:02:13;;;;;;;40.03;24.95;;;;;;;;;;5022513;28;20120;-86
2021/12/27 04:04:40;;;;;;;53.97;34.08;;;;;;;;;;5025055;28;20026;-82
2021/12/27 04:07:15;;;;;;;67.57;38.27;;;;;;;;;;5024193;28;20052;-81
2021/12/27 04:09:42;;;;;;;67.78;39.50;;;;;;;;;;5006273;28;20067;-84
2021/12/27 04:12:08;;;;;;;70.90;42.60;;;;;;;;;;5021008;28;20396;-83
2021/12/27 04:14:35;;;;;;;74.65;43.08;;;;;;;;;;5020139;28;20424;-85
2021/12/27 04:17:01;;;;;;;71.43;39.27;;;;;;;;;;5023429;28;20043;-82
2021/12/27 04:19:28;;;;;;;61.17;36.83;;;;;;;;;;5006741;28;20025;-80
2021/12/27 04:21:54;;;;;;;61.20;36.07;;;;;;;;;;5027199;28;20465;-83
2021/12/27 04:24:20;;;;;;;62.43;37.33;;;;;;;;;;5020465;28;20037;-84
2021/12/27 04:26:46;;;;;;;59.90;36.57;;;;;;;;;;5025609;28;20068;-82
2021/12/27 04:29:13;;;;;;;63.13;37.70;;;;;;;;;;5026268;28;20253;-84
2021/12/27 04:31:39;;;;;;;60.77;37.83;;;;;;;;;;5025706;28;20030;-83
2021/12/27 04:34:05;;;;;;;58.73;35.57;;;;;;;;;;5022505;28;20045;-83
2021/12/27 04:36:31;;;;;;;45.23;30.27;;;;;;;;;;5022364;28;20583;-85
2021/12/27 04:38:58;;;;;;;30.93;23.13;;;;;;;;;;5004660;28;20035;-82
2021/12/27 04:41:24;;;;;;;28.70;20.30;;;;;;;;;;5026159;28;20388;-83
2021/12/27 04:43:50;;;;;;;31.30;23.10;;;;;;;;;;5010037;28;20033;-83
2021/12/27 04:46:17;;;;;;;34.67;24.10;;;;;;;;;;5014550;28;20029;-82
2021/12/27 04:48:43;;;;;;;28.37;21.93;;;;;;;;;;5022249;28;20083;-84
2021/12/27 04:51:09;;;;;;;27.20;20.37;;;;;;;;;;5006564;28;20026;-82
2021/12/27 04:53:36;;;;;;;29.67;20.90;;;;;;;;;;5026038;28;20029;-84
2021/12/27 04:56:03;;;;;;;30.63;20.83;;;;;;;;;;5029020;28;20030;-81
2021/12/27 04:58:29;;;;;;;34.73;23.57;;;;;;;;;;5019089;28;20025;-82
2021/12/27 05:00:55;;;;;;;31.07;22.83;;;;;;;;;;5024921;28;20068;-83
2021/12/27 05:03:22;;;;;;;38.03;26.33;;;;;;;;;;5005788;28;20060;-82
2021/12/27 05:05:48;;;;;;;44.28;32.15;;;;;;;;;;5027361;28;20041;-82
2021/12/27 05:08:15;;;;;;;38.20;28.15;;;;;;;;;;5025851;28;20105;-82
2021/12/27 05:10:41;;;;;;;41.33;28.97;;;;;;;;;;5026917;28;20029;-84
2021/12/27 05:13:07;;;;;;;39.13;27.00;;;;;;;;;;5026952;28;20057;-83
2021/12/27 05:15:33;;;;;;;34.80;26.17;;;;;;;;;;5006717;28;20055;-84
2021/12/27 05:18:00;;;;;;;33.95;25.80;;;;;;;;;;5022419;28;20095;-83
2021/12/27 05:20:27;;;;;;;35.55;25.88;;;;;;;;;;5021597;28;20472;-83
2021/12/27 05:22:53;;;;;;;35.70;25.50;;;;;;;;;;5004771;28;20021;-83
2021/12/27 05:25:20;;;;;;;26.77;19.63;;;;;;;;;;5022288;28;20119;-82
2021/12/27 05:27:46;;;;;;;28.85;20.52;;;;;;;;;;5023872;28;20041;-82
2021/12/27 05:30:13;;;;;;;31.98;24.42;;;;;;;;;;5004724;28;20072;-83
2021/12/27 05:32:40;;;;;;;32.47;24.30;;;;;;;;;;5025086;28;20580;-83
2021/12/27 05:35:07;;;;;;;32.67;25.33;;;;;;;;;;5023430;28;20063;-84
2021/12/27 05:37:33;;;;;;;33.47;25.20;;;;;;;;;;5024392;28;20285;-86
2021/12/27 05:40:04;;;;;;;36.13;26.77;;;;;;;;;;5025716;28;20370;-83
2021/12/27 05:42:37;;;;;;;37.55;27.27;;;;;;;;;;5026798;28;20585;-84
2021/12/27 05:45:04;;;;;;;33.67;23.83;;;;;;;;;;5019720;28;20045;-80
2021/12/27 05:47:31;;;;;;;30.80;21.90;;;;;;;;;;5021508;28;20022;-84
2021/12/27 05:49:57;;;;;;;31.23;21.23;;;;;;;;;;4997737;28;20041;-86
2021/12/27 05:52:23;;;;;;;32.35;22.58;;;;;;;;;;5019954;28;20029;-85
2021/12/27 06:01:25;;;;;;;28.08;20.60;;;;;;;;;;5021773;28;20040;-84
2021/12/27 06:03:55;;;;;;;34.50;23.65;;;;;;;;;;5018071;28;20111;-82
2021/12/27 06:06:21;;;;;;;37.42;25.48;;;;;;;;;;5005134;28;20030;-84
2021/12/27 06:08:47;;;;;;;30.88;22.30;;;;;;;;;;5024475;28;20487;-83
2021/12/27 06:11:14;;;;;;;30.00;23.15;;;;;;;;;;5006896;28;20119;-82
2021/12/27 06:13:40;;;;;;;36.38;25.83;;;;;;;;;;5020630;28;20028;-82
2021/12/27 06:16:06;;;;;;;38.47;25.60;;;;;;;;;;5025885;28;20507;-85
2021/12/27 06:18:33;;;;;;;54.55;35.00;;;;;;;;;;5002185;28;20508;-84
2021/12/27 06:21:00;;;;;;;47.75;32.60;;;;;;;;;;5026869;28;20433;-84
2021/12/27 06:23:26;;;;;;;58.53;37.97;;;;;;;;;;4997896;28;20103;-85
2021/12/27 06:25:53;;;;;;;64.13;40.95;;;;;;;;;;5023587;28;20044;-83
2021/12/27 06:28:19;;;;;;;67.35;43.67;;;;;;;;;;5024837;28;20592;-84
2021/12/27 06:30:45;;;;;;;65.73;43.10;;;;;;;;;;5007709;28;20029;-84
2021/12/27 06:33:12;;;;;;;68.03;42.43;;;;;;;;;;5023436;28;20037;-82
2021/12/27 06:35:38;;;;;;;59.57;39.00;;;;;;;;;;5008329;28;20460;-81
2021/12/27 06:38:04;;;;;;;63.40;41.93;;;;;;;;;;5028683;28;20451;-83
2021/12/27 06:40:31;;;;;;;63.53;41.13;;;;;;;;;;5025499;28;20536;-83
2021/12/27 06:42:57;;;;;;;59.33;39.57;;;;;;;;;;5026972;28;20033;-86
2021/12/27 06:45:24;;;;;;;60.77;39.63;;;;;;;;;;5008150;28;20412;-82
2021/12/27 06:47:50;;;;;;;58.33;38.40;;;;;;;;;;5027103;28;20033;-84
2021/12/27 06:50:25;;;;;;;58.23;39.57;;;;;;;;;;5032986;28;20068;-84
2021/12/27 06:52:58;;;;;;;63.30;41.50;;;;;;;;;;5038961;28;20053;-82
2021/12/27 06:55:24;;;;;;;64.07;43.17;;;;;;;;;;5037619;28;20030;-80
2021/12/27 06:57:51;;;;;;;57.27;37.33;;;;;;;;;;5037497;28;20093;-82
2021/12/27 07:00:18;;;;;;;65.32;41.13;;;;;;;;;;5037720;28;20025;-81
2021/12/27 07:02:45;;;;;;;76.03;46.93;;;;;;;;;;5013962;28;20034;-83
2021/12/27 07:05:12;;;;;;;75.10;49.13;;;;;;;;;;5034135;28;20040;-81
2021/12/27 07:07:38;;;;;;;74.97;48.40;;;;;;;;;;5015204;28;20044;-82
2021/12/27 07:10:06;;;;;;;83.83;53.00;;;;;;;;;;5037007;28;20168;-83
2021/12/27 07:12:32;;;;;;;84.50;51.43;;;;;;;;;;5033765;28;20021;-82
2021/12/27 07:14:59;;;;;;;79.03;50.90;;;;;;;;;;5017643;28;20101;-83
2021/12/27 07:17:26;;;;;;;81.07;49.57;;;;;;;;;;5033279;28;20181;-82
2021/12/27 07:19:53;;;;;;;76.60;49.63;;;;;;;;;;5036263;28;20033;-81
2021/12/27 07:22:19;;;;;;;82.25;49.83;;;;;;;;;;5013428;28;20357;-82
2021/12/27 07:24:45;;;;;;;77.10;48.42;;;;;;;;;;5037487;28;20038;-85
2021/12/27 07:27:12;;;;;;;77.77;47.90;;;;;;;;;;5036776;28;20036;-83
2021/12/27 07:29:38;;;;;;;73.97;48.07;;;;;;;;;;5034869;28;20055;-84
2021/12/27 07:32:05;;;;;;;71.00;44.35;;;;;;;;;;5018661;28;20055;-82
2021/12/27 07:34:31;;;;;;;70.65;44.00;;;;;;;;;;5011390;28;20071;-83
2021/12/27 07:36:58;;;;;;;74.82;46.30;;;;;;;;;;5025770;28;20061;-85
2021/12/27 07:39:25;;;;;;;69.17;44.73;;;;;;;;;;5012335;28;20021;-82
2021/12/27 07:41:51;;;;;;;69.47;44.20;;;;;;;;;;5023193;28;20033;-83
2021/12/27 07:44:18;;;;;;;65.87;41.23;;;;;;;;;;5007962;28;20044;-82
2021/12/27 07:46:46;;;;;;;66.73;41.43;;;;;;;;;;5024537;28;20488;-81
2021/12/27 07:49:13;;;;;;;62.43;40.37;;;;;;;;;;5011913;28;20080;-83
2021/12/27 07:51:39;;;;;;;74.43;46.43;;;;;;;;;;5030103;28;20396;-82
2021/12/27 07:54:06;;;;;;;79.97;49.93;;;;;;;;;;5029511;28;20053;-81
2021/12/27 07:56:32;;;;;;;76.50;48.10;;;;;;;;;;5028524;28;20453;-83
2021/12/27 07:59:03;;;;;;;76.60;48.30;;;;;;;;;;5030127;28;20072;-83
2021/12/27 08:01:31;;;;;;;81.17;51.20;;;;;;;;;;5010190;28;20124;-84
2021/12/27 08:03:57;;;;;;;87.43;54.10;;;;;;;;;;5024687;28;20042;-81
2021/12/27 08:06:26;;;;;;;82.07;51.90;;;;;;;;;;5023054;28;20061;-82
2021/12/27 08:08:53;;;;;;;79.77;50.90;;;;;;;;;;5007774;28;20495;-83
2021/12/27 08:11:19;;;;;;;88.40;53.30;;;;;;;;;;5008036;28;20047;-83
2021/12/27 08:13:46;;;;;;;89.23;55.97;;;;;;;;;;5023211;28;20472;-82
2021/12/27 08:16:12;;;;;;;88.60;55.17;;;;;;;;;;5025432;28;20029;-83
2021/12/27 08:18:42;;;;;;;85.40;54.78;;;;;;;;;;5005952;28;20047;-83
2021/12/27 08:21:08;;;;;;;91.23;55.23;;;;;;;;;;5023150;28;20029;-85
2021/12/27 08:23:35;;;;;;;84.37;53.23;;;;;;;;;;5010744;28;20029;-81
2021/12/27 08:26:01;;;;;;;85.13;54.08;;;;;;;;;;5024801;28;20040;-83
2021/12/27 08:28:28;;;;;;;83.82;52.75;;;;;;;;;;5007860;28;20072;-83
2021/12/27 08:30:55;;;;;;;81.90;51.08;;;;;;;;;;5008683;28;20484;-83
2021/12/27 08:33:21;;;;;;;84.20;51.70;;;;;;;;;;5009730;28;20401;-82
2021/12/27 08:35:48;;;;;;;90.87;55.77;;;;;;;;;;5025555;28;20071;-82
2021/12/27 08:38:16;;;;;;;95.33;58.93;;;;;;;;;;5024840;28;20121;-83
2021/12/27 08:40:42;;;;;;;88.63;55.43;;;;;;;;;;5008869;28;20029;-83
2021/12/27 08:43:09;;;;;;;96.63;57.67;;;;;;;;;;5021386;28;20022;-83
2021/12/27 08:45:35;;;;;;;95.13;59.10;;;;;;;;;;5023669;28;20042;-83
2021/12/27 08:48:01;;;;;;;87.05;53.65;;;;;;;;;;5024317;28;20045;-82
2021/12/27 08:50:27;;;;;;;95.68;58.58;;;;;;;;;;5020880;28;20335;-83
2021/12/27 08:52:54;;;;;;;81.63;52.75;;;;;;;;;;5007608;28;20451;-84
2021/12/27 08:55:20;;;;;;;90.25;57.25;;;;;;;;;;5010228;28;20163;-82
2021/12/27 08:57:47;;;;;;;88.28;55.38;;;;;;;;;;5010386;28;20367;-83
2021/12/27 09:00:15;;;;;;;93.47;57.58;;;;;;;;;;5025448;28;20021;-85
2021/12/27 09:02:41;;;;;;;88.67;55.37;;;;;;;;;;5007853;28;20489;-81
2021/12/27 09:05:08;;;;;;;92.03;55.97;;;;;;;;;;5027762;28;20033;-83
2021/12/27 09:07:34;;;;;;;89.22;53.33;;;;;;;;;;5010348;28;20041;-84
2021/12/27 09:10:04;;;;;;;86.78;54.22;;;;;;;;;;5028989;28;20029;-83
2021/12/27 09:12:31;;;;;;;97.63;59.45;;;;;;;;;;5023814;28;20030;-82
2021/12/27 09:14:57;;;;;;;91.63;56.90;;;;;;;;;;5014416;28;20053;-83
2021/12/27 09:17:23;;;;;;;97.40;59.75;;;;;;;;;;5017041;28;20042;-82
2021/12/27 09:19:50;;;;;;;91.13;57.07;;;;;;;;;;5011774;28;20029;-81
2021/12/27 09:22:18;;;;;;;91.87;56.17;;;;;;;;;;5007505;28;20056;-84
2021/12/27 09:24:45;;;;;;;99.27;61.70;;;;;;;;;;5006477;28;20619;-84
2021/12/27 09:27:11;;;;;;;94.23;57.47;;;;;;;;;;5005745;28;20037;-84
2021/12/27 09:29:37;;;;;;;92.00;56.17;;;;;;;;;;5007835;28;20404;-83
2021/12/27 09:32:04;;;;;;;93.97;57.03;;;;;;;;;;5007537;28;20033;-84
2021/12/27 09:34:30;;;;;;;94.90;57.57;;;;;;;;;;5027938;28;20025;-82
2021/12/27 09:36:57;;;;;;;93.77;57.50;;;;;;;;;;5025679;28;20033;-84
2021/12/27 09:39:23;;;;;;;89.77;54.10;;;;;;;;;;5027197;28;20031;-84
2021/12/27 09:41:49;;;;;;;86.83;54.87;;;;;;;;;;5006972;28;20026;-82
2021/12/27 09:44:16;;;;;;;81.17;51.50;;;;;;;;;;5010793;28;20033;-83
2021/12/27 09:46:42;;;;;;;78.80;50.30;;;;;;;;;;5026748;28;20045;-83
2021/12/27 09:49:11;;;;;;;82.90;51.97;;;;;;;;;;5029582;28;20786;-82
2021/12/27 09:51:38;;;;;;;80.37;50.47;;;;;;;;;;5023543;28;20059;-81
2021/12/27 09:54:05;;;;;;;81.50;50.53;;;;;;;;;;5021883;28;20083;-83
2021/12/27 09:56:32;;;;;;;86.37;52.90;;;;;;;;;;5038010;28;20092;-83
2021/12/27 09:58:58;;;;;;;85.90;53.77;;;;;;;;;;5029243;28;20029;-81
2021/12/27 10:01:25;;;;;;;82.80;52.27;;;;;;;;;;5041061;28;20160;-85
2021/12/27 10:03:52;;;;;;;78.50;51.67;;;;;;;;;;5041698;28;20025;-82
2021/12/27 10:06:19;;;;;;;84.10;54.13;;;;;;;;;;5011549;28;20029;-83
2021/12/27 10:08:47;;;;;;;87.10;52.37;;;;;;;;;;5031128;28;20890;-83
2021/12/27 10:11:17;;;;;;;83.93;51.77;;;;;;;;;;5026058;28;20025;-83
2021/12/27 10:14:04;;;;;;;88.63;54.50;;;;;;;;;;5025847;28;20359;-81
2021/12/27 10:16:33;;;;;;;84.43;54.43;;;;;;;;;;5021013;28;20053;-84
2021/12/27 10:19:00;;;;;;;87.80;53.27;;;;;;;;;;5011316;28;20052;-83
2021/12/27 10:21:27;;;;;;;88.40;57.37;;;;;;;;;;5012421;28;20432;-83
2021/12/27 10:24:02;;;;;;;92.23;56.07;;;;;;;;;;5027947;28;20121;-84
2021/12/27 10:26:30;;;;;;;87.30;54.03;;;;;;;;;;5025618;28;20022;-84
2021/12/27 10:29:13;;;;;;;90.87;52.50;;;;;;;;;;5025025;28;20025;-84
2021/12/27 10:32:00;;;;;;;83.57;52.63;;;;;;;;;;5009887;28;20033;-84
2021/12/27 10:34:30;;;;;;;94.03;55.67;;;;;;;;;;5013586;28;20038;-84
2021/12/27 10:37:20;;;;;;;84.03;51.17;;;;;;;;;;5027384;28;20152;-82
2021/12/27 10:39:48;;;;;;;87.20;54.17;;;;;;;;;;5000840;28;20054;-84
2021/12/27 10:42:17;;;;;;;83.20;50.43;;;;;;;;;;5011227;28;20109;-83
2021/12/27 10:44:44;;;;;;;87.20;52.57;;;;;;;;;;5010887;28;20037;-84
2021/12/27 10:47:36;;;;;;;87.20;52.30;;;;;;;;;;5013432;28;20029;-85
2021/12/27 10:50:06;;;;;;;89.77;54.07;;;;;;;;;;5007267;28;20037;-83
2021/12/27 10:52:44;;;;;;;95.47;55.60;;;;;;;;;;5011685;28;20037;-85
2021/12/27 10:55:12;;;;;;;96.90;57.43;;;;;;;;;;5015625;28;20036;-83
2021/12/27 10:57:38;;;;;;;91.47;56.20;;;;;;;;;;5010098;28;20392;-84
2021/12/27 11:00:16;;;;;;;101.03;57.27;;;;;;;;;;5026680;28;20053;-84
2021/12/27 11:02:43;;;;;;;93.93;57.43;;;;;;;;;;5025728;28;20061;-85
2021/12/27 11:05:14;;;;;;;99.83;58.20;;;;;;;;;;5029393;28;20087;-84
2021/12/27 11:07:41;;;;;;;114.87;59.53;;;;;;;;;;5012590;28;20087;-85
2021/12/27 11:10:08;;;;;;;101.43;60.37;;;;;;;;;;5028300;28;20037;-85
2021/12/27 11:12:34;;;;;;;99.33;59.80;;;;;;;;;;5025513;28;20025;-84
2021/12/27 11:15:00;;;;;;;106.13;60.40;;;;;;;;;;5009082;28;20464;-83
2021/12/27 11:17:27;;;;;;;106.63;60.53;;;;;;;;;;5026659;28;20084;-83
2021/12/27 11:19:53;;;;;;;104.40;59.23;;;;;;;;;;5027292;28;20037;-83
2021/12/27 11:22:19;;;;;;;107.93;59.90;;;;;;;;;;5023195;28;20033;-82
2021/12/27 11:24:46;;;;;;;101.03;61.20;;;;;;;;;;5027829;28;20090;-82
2021/12/27 11:27:15;;;;;;;109.23;60.10;;;;;;;;;;5026079;28;20030;-82
2021/12/27 11:29:41;;;;;;;104.63;62.10;;;;;;;;;;5015485;28;20251;-81
2021/12/27 11:32:16;;;;;;;103.17;61.60;;;;;;;;;;5029336;28;20044;-81
2021/12/27 11:34:59;;;;;;;104.00;61.13;;;;;;;;;;5023280;28;20483;-84
2021/12/27 11:37:38;;;;;;;101.00;60.00;;;;;;;;;;5007949;28;20032;-81
2021/12/27 11:40:06;;;;;;;98.17;57.83;;;;;;;;;;5029018;28;20033;-83
2021/12/27 11:42:52;;;;;;;106.87;63.97;;;;;;;;;;5008247;28;20076;-84
2021/12/27 11:45:38;;;;;;;102.37;60.50;;;;;;;;;;5026379;28;20075;-83
2021/12/27 11:48:24;;;;;;;120.20;65.37;;;;;;;;;;5020858;28;20091;-81
2021/12/27 11:50:59;;;;;;;104.17;59.67;;;;;;;;;;5007890;28;20029;-85
2021/12/27 11:53:37;;;;;;;106.60;62.47;;;;;;;;;;5023861;28;20485;-82
2021/12/27 11:56:08;;;;;;;113.03;66.47;;;;;;;;;;5006500;28;20468;-82
2021/12/27 11:58:37;;;;;;;118.73;65.67;;;;;;;;;;5025834;28;20436;-83
2021/12/27 12:01:26;;;;;;;115.27;65.70;;;;;;;;;;5009676;28;20487;-84
2021/12/27 12:03:55;;;;;;;111.03;63.73;;;;;;;;;;5006797;28;20033;-85
2021/12/27 12:06:42;;;;;;;103.07;58.97;;;;;;;;;;5009360;28;20488;-82
2021/12/27 12:09:12;;;;;;;106.03;62.90;;;;;;;;;;5004661;28;20072;-84
2021/12/27 12:11:39;;;;;;;108.37;63.33;;;;;;;;;;5010165;28;20044;-83
2021/12/27 12:14:27;;;;;;;104.23;60.23;;;;;;;;;;5026609;28;20141;-83
2021/12/27 12:16:54;;;;;;;109.10;64.37;;;;;;;;;;5004593;28;20037;-82
2021/12/27 12:19:39;;;;;;;105.60;62.27;;;;;;;;;;5003528;28;20029;-84
2021/12/27 12:22:06;;;;;;;100.53;60.27;;;;;;;;;;5005117;28;20025;-81
2021/12/27 12:24:33;;;;;;;106.87;62.83;;;;;;;;;;5007733;28;20503;-80
2021/12/27 12:27:00;;;;;;;120.43;70.90;;;;;;;;;;5024069;28;20033;-84
2021/12/27 12:29:28;;;;;;;107.13;62.43;;;;;;;;;;5021881;28;20026;-82
2021/12/27 12:31:58;;;;;;;93.27;55.90;;;;;;;;;;5007477;28;20029;-82
2021/12/27 12:34:25;;;;;;;94.93;58.30;;;;;;;;;;5023334;28;20021;-82
2021/12/27 12:36:56;;;;;;;98.47;56.53;;;;;;;;;;5027304;28;20029;-82
2021/12/27 12:39:23;;;;;;;104.50;58.90;;;;;;;;;;5024086;28;20323;-83
2021/12/27 12:41:50;;;;;;;97.83;59.80;;;;;;;;;;5028205;28;20022;-85
2021/12/27 12:44:17;;;;;;;106.57;59.90;;;;;;;;;;5027683;28;20075;-83
2021/12/27 12:46:48;;;;;;;102.73;59.77;;;;;;;;;;5030134;28;20018;-83
2021/12/27 12:49:16;;;;;;;100.63;56.20;;;;;;;;;;5027293;28;20017;-82
2021/12/27 12:51:49;;;;;;;89.80;55.13;;;;;;;;;;5022756;28;20528;-83
2021/12/27 12:54:26;;;;;;;98.33;56.60;;;;;;;;;;5008552;28;20116;-83
2021/12/27 12:56:57;;;;;;;97.27;58.50;;;;;;;;;;5011104;28;20029;-83
2021/12/27 12:59:32;;;;;;;94.33;54.97;;;;;;;;;;5026423;28;20049;-82
2021/12/27 13:01:58;;;;;;;98.30;55.90;;;;;;;;;;5023479;28;20044;-84
2021/12/27 13:04:25;;;;;;;106.27;58.97;;;;;;;;;;5023245;28;20045;-83
2021/12/27 13:06:51;;;;;;;96.67;54.73;;;;;;;;;;5005820;28;20029;-82
2021/12/27 13:09:17;;;;;;;112.30;61.13;;;;;;;;;;5025096;28;20029;-83
2021/12/27 13:11:44;;;;;;;104.00;60.37;;;;;;;;;;5008092;28;20029;-82
2021/12/27 13:14:11;;;;;;;115.60;66.20;;;;;;;;;;5026894;28;20384;-82
2021/12/27 13:16:37;;;;;;;112.53;64.20;;;;;;;;;;5031105;28;20026;-84
2021/12/27 13:19:08;;;;;;;110.20;62.40;;;;;;;;;;5024662;28;20038;-82
2021/12/27 13:21:40;;;;;;;106.17;59.07;;;;;;;;;;5026350;28;20018;-81
2021/12/27 13:24:07;;;;;;;106.40;59.97;;;;;;;;;;5030564;28;20021;-84
2021/12/27 13:26:33;;;;;;;103.03;62.37;;;;;;;;;;5018111;28;20030;-82
2021/12/27 13:29:01;;;;;;;103.37;57.67;;;;;;;;;;5024842;28;20018;-82
2021/12/27 13:31:28;;;;;;;110.70;60.00;;;;;;;;;;5032858;28;20021;-83
2021/12/27 13:33:56;;;;;;;118.60;64.90;;;;;;;;;;5020763;28;20044;-83
2021/12/27 13:36:30;;;;;;;116.60;63.40;;;;;;;;;;5024394;28;20120;-84
2021/12/27 13:39:14;;;;;;;116.53;62.57;;;;;;;;;;5031518;28;20028;-81
2021/12/27 13:41:42;;;;;;;111.30;62.20;;;;;;;;;;5030741;28;20117;-84
2021/12/27 13:44:10;;;;;;;109.97;62.67;;;;;;;;;;5030688;28;20018;-82
2021/12/27 13:46:38;;;;;;;110.93;61.90;;;;;;;;;;5015987;28;20040;-82
2021/12/27 13:49:07;;;;;;;112.57;63.87;;;;;;;;;;5012645;28;20021;-85
2021/12/27 13:51:34;;;;;;;113.77;62.90;;;;;;;;;;5004570;28;20048;-82
2021/12/27 13:54:02;;;;;;;114.77;63.83;;;;;;;;;;5001363;28;20132;-83
2021/12/27 13:56:29;;;;;;;121.47;63.40;;;;;;;;;;5022586;28;20037;-81
2021/12/27 13:58:56;;;;;;;116.27;65.77;;;;;;;;;;5011409;28;20030;-82
2021/12/27 14:01:23;;;;;;;111.87;59.63;;;;;;;;;;5020026;28;20029;-85
2021/12/27 14:03:51;;;;;;;118.60;64.40;;;;;;;;;;5020146;28;20042;-81
2021/12/27 14:06:18;;;;;;;111.90;61.53;;;;;;;;;;5009590;28;20503;-81
2021/12/27 14:09:01;;;;;;;121.77;66.33;;;;;;;;;;5000320;28;20026;-82
2021/12/27 14:11:28;;;;;;;120.60;67.07;;;;;;;;;;5026065;28;20033;-84
2021/12/27 14:13:57;;;;;;;124.13;67.83;;;;;;;;;;4991019;28;20385;-82
2021/12/27 14:16:34;;;;;;;116.87;66.10;;;;;;;;;;5009640;28;20213;-83
2021/12/27 14:19:06;;;;;;;131.57;69.70;;;;;;;;;;5024362;28;20045;-81
2021/12/27 14:21:33;;;;;;;124.97;65.93;;;;;;;;;;5022491;28;20057;-82
2021/12/27 14:24:07;;;;;;;146.87;70.00;;;;;;;;;;5021309;28;20042;-83
2021/12/27 14:26:34;;;;;;;147.33;75.93;;;;;;;;;;5023035;28;20607;-82
2021/12/27 14:29:20;;;;;;;144.47;74.30;;;;;;;;;;5026408;28;20489;-82
2021/12/27 14:31:50;;;;;;;141.70;72.70;;;;;;;;;;5013156;28;20057;-81
2021/12/27 14:34:36;;;;;;;137.10;73.83;;;;;;;;;;5000949;28;20030;-81
2021/12/27 14:37:03;;;;;;;139.43;73.87;;;;;;;;;;5007577;28;20029;-80